1917 NOT_NAMED (1917003S18140)


IBTrACS version v04r00. Visit IBTrACS website for data access.
Please direct all questions to the IBTrACS Q and A forum

Storm track - Intensity - Wind Radii - Intensity Data - Source Data - All data

Summary Information

Storm ID 1917003S18140
Start Jan 2 23Z
End Jan 5 23Z
ATCF IDs
Track status Best track data.

Storm track plot

Map of storm track

Intensity plots

No Intensity information for this storm


Radial wind information

No radial wind information for this storm


Position and Intensity Table

BASIN ISO_TIME_________ NATURE LAT LON
degrees north degrees east
SP 1917-01-02 23:00:00 NR -17.80 140.40
SP 1917-01-03 00:00:00 NR -17.93 140.60
SP 03:00:00 NR -18.31 141.22
SP 06:00:00 NR -18.70 141.84
SP 09:00:00 NR -19.11 142.47
SP 11:00:00 NR -19.40 142.90
SP 12:00:00 NR -19.55 143.12
SP 15:00:00 NR -20.00 143.76
SP 18:00:00 NR -20.44 144.37
SP 21:00:00 NR -20.81 144.91
SP 23:00:00 NR -21.00 145.20
SP 1917-01-04 00:00:00 NR -21.06 145.32
SP 03:00:00 NR -21.18 145.58
SP 06:00:00 NR -21.24 145.76
SP 09:00:00 NR -21.27 145.90
SP 11:00:00 NR -21.30 146.00
SP 12:00:00 NR -21.34 146.07
SP 15:00:00 NR -21.49 146.30
SP 18:00:00 NR -21.65 146.53
SP 21:00:00 NR -21.81 146.75
SP 23:00:00 NR -21.90 146.90
SP 1917-01-05 00:00:00 NR -21.93 146.97
SP 03:00:00 NR -22.01 147.15
SP 06:00:00 NR -22.08 147.34
SP 09:00:00 NR -22.15 147.55
SP 11:00:00 NR -22.20 147.70
SP 12:00:00 NR -22.23 147.78
SP 15:00:00 NR -22.34 148.06
SP 18:00:00 NR -22.47 148.36
SP 21:00:00 NR -22.61 148.68
SP 23:00:00 NR -22.70 148.90

Source Information

Agency Information
USA
TOKYO
CMA
HKO
NEWDELHI
REUNION
BOM
NADI
WELLINGTON
DS824
TD9636 cons_worldwide_trop_cyclone_18710101-19891231-006:Line=921
TD9635
NEUMANN
MLC

All available IBTrACS Data

SEASON BASIN SUBBASIN ISO_TIME_________ NATURE LAT LON DIST2LAND LANDFALL IFLAG USA SSHS TD9636 LAT TD9636 LON TD9636 STAGE STORM SPEED STORM DIR
Year degrees north degrees east km km 1 degrees north degrees east kts degrees
1917 SP EA 1917-01-02 23:00:00 NR -17.80 140.40 0 0 __________O___ -1 -17.80 140.40 7 14 123
1917 SP EA 1917-01-03 00:00:00 NR -17.93 140.60 0 0 __________P___ -1 -17.93 140.60 7 14 123
1917 SP EA 03:00:00 NR -18.31 141.22 0 0 __________P___ -1 -18.31 141.22 7 14 123
1917 SP EA 06:00:00 NR -18.70 141.84 0 0 __________P___ -1 -18.70 141.84 7 14 124
1917 SP EA 09:00:00 NR -19.11 142.47 0 0 __________P___ -1 -19.11 142.47 7 15 125
1917 SP EA 11:00:00 NR -19.40 142.90 0 0 __________O___ -1 -19.40 142.90 7 15 126
1917 SP EA 12:00:00 NR -19.55 143.12 0 0 __________P___ -1 -19.55 143.12 7 15 127
1917 SP EA 15:00:00 NR -20.00 143.76 0 0 __________P___ -1 -20.00 143.76 7 15 127
1917 SP EA 18:00:00 NR -20.44 144.37 0 0 __________P___ -1 -20.44 144.37 7 13 127
1917 SP EA 21:00:00 NR -20.81 144.91 0 0 __________P___ -1 -20.81 144.91 7 12 126
1917 SP EA 23:00:00 NR -21.00 145.20 0 0 __________O___ -1 -21.00 145.20 7 9 124
1917 SP EA 1917-01-04 00:00:00 NR -21.06 145.32 0 0 __________P___ -1 -21.06 145.32 7 6 117
1917 SP EA 03:00:00 NR -21.18 145.58 0 0 __________P___ -1 -21.18 145.58 7 4 113
1917 SP EA 06:00:00 NR -21.24 145.76 0 0 __________P___ -1 -21.24 145.76 7 3 105
1917 SP EA 09:00:00 NR -21.27 145.90 0 0 __________P___ -1 -21.27 145.90 7 3 106
1917 SP EA 11:00:00 NR -21.30 146.00 0 0 __________O___ -1 -21.30 146.00 7 4 116
1917 SP EA 12:00:00 NR -21.34 146.07 0 0 __________P___ -1 -21.34 146.07 7 5 125
1917 SP EA 15:00:00 NR -21.49 146.30 0 0 __________P___ -1 -21.49 146.30 7 5 126
1917 SP EA 18:00:00 NR -21.65 146.53 0 0 __________P___ -1 -21.65 146.53 7 5 127
1917 SP EA 21:00:00 NR -21.81 146.75 0 0 __________P___ -1 -21.81 146.75 7 5 125
1917 SP EA 23:00:00 NR -21.90 146.90 0 0 __________O___ -1 -21.90 146.90 7 5 122
1917 SP EA 1917-01-05 00:00:00 NR -21.93 146.97 0 0 __________P___ -1 -21.93 146.97 7 4 116
1917 SP EA 03:00:00 NR -22.01 147.15 0 0 __________P___ -1 -22.01 147.15 7 4 113
1917 SP EA 06:00:00 NR -22.08 147.34 0 0 __________P___ -1 -22.08 147.34 7 4 110
1917 SP EA 09:00:00 NR -22.15 147.55 0 0 __________P___ -1 -22.15 147.55 7 4 110
1917 SP EA 11:00:00 NR -22.20 147.70 0 0 __________O___ -1 -22.20 147.70 7 5 111
1917 SP EA 12:00:00 NR -22.23 147.78 0 0 __________P___ -1 -22.23 147.78 7 5 113
1917 SP EA 15:00:00 NR -22.34 148.06 0 0 __________P___ -1 -22.34 148.06 7 6 114
1917 SP EA 18:00:00 NR -22.47 148.36 0 0 __________P___ -1 -22.47 148.36 7 6 115
1917 SP EA 21:00:00 NR -22.61 148.68 0 0 __________P___ -1 -22.61 148.68 7 7 115
1917 SP EA 23:00:00 NR -22.70 148.90 0 __________O___ -1 -22.70 148.90 7 7 115